createdAt,value
2022-08-17T00:01:30.173Z,100.00
2022-08-17T00:04:11.749Z,100.00
2022-08-17T00:06:38.623Z,100.00
2022-08-17T00:09:05.780Z,100.00
2022-08-17T00:11:36.379Z,100.00
2022-08-17T00:14:13.140Z,100.00
2022-08-17T00:16:57.094Z,100.00
2022-08-17T00:19:26.179Z,100.00
2022-08-17T00:22:29.917Z,100.00
2022-08-17T00:24:44.381Z,100.00
2022-08-17T00:27:10.974Z,100.00
2022-08-17T00:29:37.660Z,100.00
2022-08-17T00:33:14.906Z,100.00
2022-08-17T00:34:51.168Z,100.00
2022-08-17T00:37:17.915Z,100.00
2022-08-17T00:39:44.616Z,100.00
2022-08-17T00:42:16.488Z,100.00
2022-08-17T00:44:43.069Z,100.00
2022-08-17T00:47:09.801Z,100.00
2022-08-17T00:49:36.431Z,100.00
2022-08-17T00:52:10.859Z,100.00
2022-08-17T00:54:42.083Z,100.00
2022-08-17T00:57:16.374Z,100.00
2022-08-17T00:59:47.189Z,100.00
2022-08-17T01:02:41.693Z,100.00
2022-08-17T01:05:14.466Z,100.00
2022-08-17T01:07:42.859Z,100.00
2022-08-17T01:11:00.379Z,100.00
2022-08-17T01:13:02.528Z,100.00
2022-08-17T01:15:31.606Z,100.00
2022-08-17T01:17:58.195Z,100.00
2022-08-17T01:20:25.199Z,100.00
2022-08-17T01:22:52.422Z,100.00
2022-08-17T01:25:20.615Z,100.00
2022-08-17T01:27:48.412Z,100.00
2022-08-17T01:30:57.314Z,100.00
2022-08-17T01:33:02.555Z,100.00
2022-08-17T01:35:29.176Z,100.00
2022-08-17T01:37:55.742Z,100.00
2022-08-17T01:40:22.570Z,100.00
2022-08-17T01:42:55.797Z,100.00
2022-08-17T01:45:30.385Z,100.00
2022-08-17T01:47:57.471Z,100.00
2022-08-17T01:50:31.536Z,100.00
2022-08-17T01:53:07.442Z,100.00
2022-08-17T01:55:40.021Z,100.00
2022-08-17T01:58:09.683Z,100.00
2022-08-17T02:00:46.618Z,100.00
2022-08-17T02:03:25.505Z,100.00
2022-08-17T02:05:53.260Z,100.00
2022-08-17T02:08:39.232Z,100.00
2022-08-17T02:11:13.784Z,100.00
2022-08-17T02:13:40.433Z,100.00
2022-08-17T02:16:07.008Z,100.00
2022-08-17T02:18:33.795Z,100.00
2022-08-17T02:21:00.727Z,100.00
2022-08-17T02:23:30.447Z,100.00
2022-08-17T02:25:59.910Z,100.00
2022-08-17T02:28:28.330Z,100.00
2022-08-17T02:31:00.859Z,100.00
2022-08-17T02:33:37.292Z,100.00
2022-08-17T02:36:09.514Z,100.00
2022-08-17T02:38:37.098Z,100.00
2022-08-17T02:41:04.565Z,100.00
2022-08-17T02:43:31.440Z,100.00
2022-08-17T02:45:58.215Z,100.00
2022-08-17T02:48:30.566Z,100.00
2022-08-17T02:50:58.790Z,100.00
2022-08-17T02:53:25.762Z,100.00
2022-08-17T02:55:53.379Z,100.00
2022-08-17T02:58:35.131Z,100.00
2022-08-17T03:01:04.585Z,100.00
2022-08-17T03:03:31.332Z,100.00
2022-08-17T03:05:57.886Z,100.00
2022-08-17T03:08:25.394Z,100.00
2022-08-17T03:10:52.211Z,100.00
2022-08-17T03:13:19.038Z,100.00
2022-08-17T03:15:46.807Z,100.00
2022-08-17T03:18:24.363Z,100.00
2022-08-17T03:20:55.209Z,100.00
2022-08-17T03:23:23.794Z,100.00
2022-08-17T03:25:53.361Z,100.00
2022-08-17T03:28:21.042Z,100.00
2022-08-17T03:30:47.958Z,100.00
2022-08-17T03:33:14.944Z,100.00
2022-08-17T03:35:41.778Z,100.00
2022-08-17T03:38:15.120Z,100.00
2022-08-17T03:40:56.648Z,100.00
2022-08-17T03:43:25.254Z,100.00
2022-08-17T03:46:28.178Z,100.00
2022-08-17T03:49:16.129Z,100.00
2022-08-17T03:52:00.995Z,100.00
2022-08-17T03:54:46.334Z,100.00
2022-08-17T03:57:13.683Z,100.00
2022-08-17T03:59:40.918Z,100.00
2022-08-17T04:02:25.581Z,100.00
2022-08-17T04:04:52.495Z,100.00
2022-08-17T04:07:20.828Z,100.00
2022-08-17T04:09:47.445Z,100.00
2022-08-17T04:12:21.591Z,100.00
2022-08-17T04:14:53.029Z,100.00
2022-08-17T04:17:24.331Z,100.00
2022-08-17T04:19:51.237Z,100.00
2022-08-17T04:22:30.773Z,100.00
2022-08-17T04:25:07.522Z,100.00
2022-08-17T04:27:34.292Z,100.00
2022-08-17T04:30:01.630Z,100.00
2022-08-17T04:33:04.099Z,100.00
2022-08-17T04:35:22.246Z,100.00
2022-08-17T04:37:49.192Z,100.00
2022-08-17T04:40:34.856Z,100.00
2022-08-17T04:43:08.690Z,100.00
2022-08-17T04:45:55.226Z,100.00
2022-08-17T04:48:29.727Z,100.00
2022-08-17T04:51:09.943Z,100.00
2022-08-17T04:53:37.895Z,100.00
2022-08-17T04:56:05.123Z,100.00
2022-08-17T04:58:32.119Z,100.00
2022-08-17T05:00:58.760Z,100.00
2022-08-17T05:03:25.916Z,100.00
2022-08-17T05:05:53.732Z,100.00
2022-08-17T05:08:21.345Z,100.00
2022-08-17T05:10:48.742Z,100.00
2022-08-17T05:13:18.306Z,100.00
2022-08-17T05:15:47.887Z,100.00
2022-08-17T05:18:15.927Z,100.00
2022-08-17T05:20:43.343Z,100.00
2022-08-17T05:23:13.054Z,100.00
2022-08-17T05:25:47.505Z,100.00
2022-08-17T05:28:16.788Z,100.00
2022-08-17T05:30:46.163Z,100.00
2022-08-17T05:33:21.920Z,100.00
2022-08-17T05:35:51.445Z,100.00
2022-08-17T05:38:20.624Z,100.00
2022-08-17T05:40:47.839Z,100.00
2022-08-17T05:43:29.009Z,100.00
2022-08-17T05:46:10.438Z,100.00
2022-08-17T05:48:43.845Z,100.00
2022-08-17T05:51:31.829Z,100.00
2022-08-17T05:54:10.443Z,100.00
2022-08-17T05:56:58.046Z,100.00
2022-08-17T05:59:45.898Z,100.00
2022-08-17T06:02:24.616Z,100.00
2022-08-17T06:05:10.431Z,100.00
2022-08-17T06:07:57.196Z,100.00
2022-08-17T06:10:38.960Z,100.00
2022-08-17T06:13:24.815Z,100.00
2022-08-17T06:15:54.020Z,100.00
2022-08-17T06:18:23.604Z,100.00
2022-08-17T06:21:13.216Z,100.00
2022-08-17T06:23:46.200Z,100.00
2022-08-17T06:26:27.571Z,100.00
2022-08-17T06:29:27.987Z,100.00
2022-08-17T06:31:54.658Z,100.00
2022-08-17T06:34:21.677Z,100.00
2022-08-17T06:37:03.612Z,100.00
2022-08-17T06:39:53.448Z,100.00
2022-08-17T06:42:54.687Z,100.00
2022-08-17T06:45:49.248Z,100.00
2022-08-17T06:48:25.599Z,100.00
2022-08-17T06:51:14.012Z,100.00
2022-08-17T06:53:45.763Z,100.00
2022-08-17T06:56:53.727Z,100.00
2022-08-17T06:59:34.742Z,100.00
2022-08-17T07:02:44.423Z,100.00
2022-08-17T07:05:09.893Z,100.00
2022-08-17T07:07:57.930Z,100.00
2022-08-17T07:10:27.501Z,100.00
2022-08-17T07:12:58.520Z,100.00
2022-08-17T07:15:42.348Z,100.00
2022-08-17T07:18:09.721Z,100.00
2022-08-17T07:20:42.857Z,100.00
2022-08-17T07:23:45.727Z,100.00
2022-08-17T07:26:13.317Z,100.00
2022-08-17T07:28:40.239Z,100.00
2022-08-17T07:31:08.078Z,100.00
2022-08-17T07:33:36.933Z,100.00
2022-08-17T07:36:03.799Z,100.00
2022-08-17T07:38:33.325Z,100.00
2022-08-17T07:41:05.318Z,100.00
2022-08-17T07:43:46.978Z,100.00
2022-08-17T07:47:05.594Z,100.00
2022-08-17T07:49:32.091Z,100.00
2022-08-17T07:52:48.394Z,100.00
2022-08-17T07:54:52.947Z,100.00
2022-08-17T07:57:20.124Z,100.00
2022-08-17T08:00:19.481Z,100.00
2022-08-17T08:03:31.876Z,100.00
2022-08-17T08:06:02.078Z,100.00
2022-08-17T08:08:42.415Z,100.00
2022-08-17T08:11:12.844Z,100.00
2022-08-17T08:13:43.932Z,100.00
2022-08-17T08:16:29.496Z,100.00
2022-08-17T08:19:01.825Z,100.00
2022-08-17T08:21:55.179Z,100.00
2022-08-17T08:24:21.806Z,100.00
2022-08-17T08:27:02.556Z,100.00
2022-08-17T08:29:38.276Z,100.00
2022-08-17T08:32:29.099Z,100.00
2022-08-17T08:35:31.481Z,100.00
2022-08-17T08:38:34.448Z,100.00
2022-08-17T08:41:19.498Z,100.00
2022-08-17T08:44:04.732Z,100.00
2022-08-17T08:46:44.102Z,100.00
2022-08-17T08:49:59.527Z,100.00
2022-08-17T08:52:49.515Z,100.00
2022-08-17T08:55:35.566Z,100.00
2022-08-17T08:58:31.511Z,100.00
2022-08-17T09:00:58.682Z,100.00
2022-08-17T09:04:06.717Z,100.00
2022-08-17T09:07:05.465Z,100.00
2022-08-17T09:09:41.250Z,100.00
2022-08-17T09:12:18.068Z,100.00
2022-08-17T09:15:12.859Z,100.00
2022-08-17T09:17:51.299Z,100.00
2022-08-17T09:20:45.354Z,100.00
2022-08-17T09:23:34.344Z,100.00
2022-08-17T09:26:14.341Z,100.00
2022-08-17T09:28:49.229Z,100.00
2022-08-17T09:31:20.256Z,100.00
2022-08-17T09:33:48.504Z,100.00
2022-08-17T09:36:18.712Z,100.00
2022-08-17T09:38:53.647Z,100.00
2022-08-17T09:41:32.456Z,100.00
2022-08-17T09:44:12.106Z,100.00
2022-08-17T09:47:03.777Z,100.00
2022-08-17T09:49:40.655Z,100.00
2022-08-17T09:52:23.809Z,100.00
2022-08-17T09:54:52.395Z,100.00
2022-08-17T09:57:34.138Z,100.00
2022-08-17T10:00:13.055Z,100.00
2022-08-17T10:02:55.231Z,100.00
2022-08-17T10:05:56.721Z,100.00
2022-08-17T10:08:27.629Z,100.00
2022-08-17T10:11:07.089Z,100.00
2022-08-17T10:13:39.575Z,100.00
2022-08-17T10:16:30.428Z,100.00
2022-08-17T10:19:07.353Z,100.00
2022-08-17T10:22:00.958Z,100.00
2022-08-17T10:25:20.879Z,100.00
2022-08-17T10:27:44.064Z,100.00
2022-08-17T10:30:14.003Z,100.00
2022-08-17T10:32:47.695Z,100.00
2022-08-17T10:35:28.815Z,100.00
2022-08-17T10:38:24.446Z,100.00
2022-08-17T10:40:58.371Z,100.00
2022-08-17T10:43:44.729Z,100.00
2022-08-17T10:46:43.247Z,100.00
2022-08-17T10:49:18.841Z,100.00
2022-08-17T10:51:54.431Z,100.00
2022-08-17T10:54:24.148Z,100.00
2022-08-17T10:56:53.355Z,100.00
2022-08-17T10:59:34.871Z,99.04
2022-08-17T11:02:12.573Z,100.00
2022-08-17T11:05:01.115Z,100.00
2022-08-17T11:07:43.830Z,100.00
2022-08-17T11:10:16.721Z,100.00
2022-08-17T11:12:46.018Z,100.00
2022-08-17T11:15:56.598Z,100.00
2022-08-17T11:18:40.829Z,99.59
2022-08-17T11:21:55.108Z,99.83
2022-08-17T11:24:28.281Z,100.00
2022-08-17T11:27:12.269Z,89.32
2022-08-17T11:29:56.809Z,97.47
2022-08-17T11:32:31.004Z,94.49
2022-08-17T11:35:44.998Z,88.57
2022-08-17T11:38:49.531Z,93.37
2022-08-17T11:41:30.817Z,96.22
2022-08-17T11:44:06.646Z,97.51
2022-08-17T11:47:18.650Z,96.32
2022-08-17T11:50:25.784Z,89.40
2022-08-17T11:52:54.970Z,95.94
2022-08-17T11:55:37.542Z,91.88
2022-08-17T11:58:39.961Z,90.16
2022-08-17T12:01:33.575Z,89.13
2022-08-17T12:04:25.066Z,88.05
2022-08-17T12:07:10.375Z,89.14
2022-08-17T12:09:46.217Z,81.63
2022-08-17T12:12:35.966Z,84.93
2022-08-17T12:15:11.853Z,90.12
2022-08-17T12:17:42.653Z,85.92
2022-08-17T12:20:23.362Z,84.97
2022-08-17T12:23:08.075Z,86.62
2022-08-17T12:25:47.612Z,90.96
2022-08-17T12:28:35.400Z,92.73
2022-08-17T12:31:07.931Z,93.88
2022-08-17T12:33:37.286Z,90.70
2022-08-17T12:36:08.541Z,96.45
2022-08-17T12:38:37.850Z,94.06
2022-08-17T12:41:26.357Z,97.88
2022-08-17T12:44:05.031Z,99.47
2022-08-17T12:46:55.805Z,100.00
2022-08-17T12:49:32.643Z,100.00
2022-08-17T12:52:11.220Z,100.00
2022-08-17T12:55:11.042Z,99.86
2022-08-17T12:57:40.301Z,100.00
2022-08-17T13:00:22.073Z,99.83
2022-08-17T13:02:52.399Z,100.00
2022-08-17T13:05:38.115Z,99.93
2022-08-17T13:08:14.866Z,99.80
2022-08-17T13:10:41.624Z,100.00
2022-08-17T13:13:26.538Z,96.96
2022-08-17T13:15:55.778Z,98.04
2022-08-17T13:18:35.612Z,97.91
2022-08-17T13:21:02.544Z,97.79
2022-08-17T13:23:31.380Z,94.07
2022-08-17T13:26:05.292Z,93.49
2022-08-17T13:28:36.170Z,92.82
2022-08-17T13:31:21.210Z,93.00
2022-08-17T13:33:47.975Z,90.40
2022-08-17T13:36:30.205Z,89.41
2022-08-17T13:39:12.392Z,88.48
2022-08-17T13:41:39.291Z,90.43
2022-08-17T13:44:39.450Z,94.91
2022-08-17T13:47:17.468Z,90.16
2022-08-17T13:49:48.827Z,92.32
2022-08-17T13:52:52.261Z,94.71
2022-08-17T13:55:22.039Z,97.99
2022-08-17T13:58:06.566Z,98.86
2022-08-17T14:00:35.466Z,99.78
2022-08-17T14:03:03.790Z,98.59
2022-08-17T14:05:31.587Z,96.84
2022-08-17T14:08:02.215Z,98.55
2022-08-17T14:10:35.808Z,100.00
2022-08-17T14:13:02.726Z,97.95
2022-08-17T14:15:55.485Z,98.45
2022-08-17T14:18:18.979Z,97.32
2022-08-17T14:21:02.330Z,89.82
2022-08-17T14:23:35.237Z,84.70
2022-08-17T14:26:02.103Z,78.95
2022-08-17T14:28:28.807Z,71.91
2022-08-17T14:30:55.545Z,72.29
2022-08-17T14:33:24.702Z,70.52
2022-08-17T14:35:53.591Z,76.15
2022-08-17T14:38:20.663Z,67.59
2022-08-17T14:40:48.731Z,66.75
2022-08-17T14:43:15.844Z,59.69
2022-08-17T14:45:43.050Z,57.99
2022-08-17T14:48:10.487Z,51.72
2022-08-17T14:50:41.027Z,50.20
2022-08-17T14:53:09.686Z,47.23
2022-08-17T14:55:39.818Z,45.87
2022-08-17T14:58:07.446Z,44.20
2022-08-17T15:00:34.763Z,43.25
2022-08-17T15:03:02.351Z,43.69
2022-08-17T15:05:33.477Z,44.12
2022-08-17T15:08:01.705Z,44.42
2022-08-17T15:10:29.829Z,45.83
2022-08-17T15:12:57.481Z,45.97
2022-08-17T15:15:24.490Z,47.68
2022-08-17T15:17:51.607Z,48.13
2022-08-17T15:20:22.823Z,50.23
2022-08-17T15:22:50.571Z,50.06
2022-08-17T15:25:19.069Z,51.96
2022-08-17T15:27:45.765Z,55.14
2022-08-17T15:30:12.896Z,56.13
2022-08-17T15:32:41.360Z,58.13
2022-08-17T15:35:18.973Z,57.95
2022-08-17T15:37:53.872Z,60.50
2022-08-17T15:40:20.525Z,64.66
2022-08-17T15:42:47.099Z,65.89
2022-08-17T15:45:16.470Z,77.64
2022-08-17T15:47:43.323Z,79.53
2022-08-17T15:50:10.639Z,84.38
2022-08-17T15:52:40.290Z,86.47
2022-08-17T15:55:12.618Z,90.51
2022-08-17T15:57:39.871Z,92.60
2022-08-17T16:00:09.600Z,93.94
2022-08-17T16:03:32.030Z,98.00
2022-08-17T16:05:25.375Z,97.28
2022-08-17T16:07:53.194Z,97.18
2022-08-17T16:10:21.060Z,98.47
2022-08-17T16:12:49.810Z,100.00
2022-08-17T16:15:18.183Z,100.00
2022-08-17T16:17:44.852Z,100.00
2022-08-17T16:20:19.773Z,100.00
2022-08-17T16:22:49.339Z,100.00
2022-08-17T16:25:23.042Z,100.00
2022-08-17T16:28:09.696Z,100.00
2022-08-17T16:30:37.308Z,100.00
2022-08-17T16:33:04.429Z,100.00
2022-08-17T16:35:31.428Z,100.00
2022-08-17T16:37:58.777Z,100.00
2022-08-17T16:40:27.826Z,100.00
2022-08-17T16:42:55.489Z,100.00
2022-08-17T16:45:27.299Z,100.00
2022-08-17T16:47:54.730Z,100.00
2022-08-17T16:50:23.435Z,100.00
2022-08-17T16:52:50.577Z,100.00
2022-08-17T16:55:20.137Z,100.00
2022-08-17T16:57:50.712Z,100.00
2022-08-17T17:00:19.369Z,100.00
2022-08-17T17:02:48.250Z,100.00
2022-08-17T17:05:43.459Z,100.00
2022-08-17T17:08:15.220Z,100.00
2022-08-17T17:10:48.906Z,100.00
2022-08-17T17:14:08.455Z,100.00
2022-08-17T17:16:53.033Z,100.00
2022-08-17T17:19:35.002Z,100.00
2022-08-17T17:22:19.670Z,100.00
2022-08-17T17:24:56.074Z,100.00
2022-08-17T17:27:56.775Z,100.00
2022-08-17T17:30:43.289Z,100.00
2022-08-17T17:33:22.537Z,100.00
2022-08-17T17:35:56.864Z,100.00
2022-08-17T17:38:32.951Z,100.00
2022-08-17T17:41:09.115Z,100.00
2022-08-17T17:43:40.093Z,100.00
2022-08-17T17:46:26.565Z,100.00
2022-08-17T17:48:56.756Z,100.00
2022-08-17T17:52:06.538Z,100.00
2022-08-17T17:54:52.241Z,100.00
2022-08-17T17:58:13.364Z,100.00
2022-08-17T18:01:13.126Z,100.00
2022-08-17T18:04:08.881Z,100.00
2022-08-17T18:07:15.536Z,100.00
2022-08-17T18:09:42.313Z,100.00
2022-08-17T18:12:25.267Z,100.00
2022-08-17T18:15:10.241Z,100.00
2022-08-17T18:17:37.052Z,100.00
2022-08-17T18:20:07.371Z,100.00
2022-08-17T18:22:34.182Z,100.00
2022-08-17T18:25:00.879Z,100.00
2022-08-17T18:27:51.068Z,100.00
2022-08-17T18:30:17.793Z,100.00
2022-08-17T18:32:46.562Z,100.00
2022-08-17T18:35:15.802Z,100.00
2022-08-17T18:37:49.376Z,100.00
2022-08-17T18:40:21.610Z,100.00
2022-08-17T18:43:03.441Z,100.00
2022-08-17T18:45:39.085Z,100.00
2022-08-17T18:48:18.803Z,100.00
2022-08-17T18:50:45.796Z,100.00
2022-08-17T18:53:34.542Z,100.00
2022-08-17T18:56:22.486Z,100.00
2022-08-17T18:59:18.154Z,100.00
2022-08-17T19:01:59.982Z,100.00
2022-08-17T19:04:39.750Z,100.00
2022-08-17T19:07:08.803Z,100.00
2022-08-17T19:09:48.638Z,100.00
2022-08-17T19:13:00.675Z,100.00
2022-08-17T19:15:34.863Z,100.00
2022-08-17T19:18:15.627Z,100.00
2022-08-17T19:20:50.757Z,100.00
2022-08-17T19:23:20.174Z,100.00
2022-08-17T19:25:50.771Z,100.00
2022-08-17T19:28:54.600Z,100.00
2022-08-17T19:31:27.388Z,100.00
2022-08-17T19:33:56.191Z,100.00
2022-08-17T19:36:47.329Z,100.00
2022-08-17T19:39:38.484Z,100.00
2022-08-17T19:42:31.084Z,100.00
2022-08-17T19:45:26.563Z,100.00
2022-08-17T19:48:03.119Z,100.00
2022-08-17T19:50:52.702Z,100.00
2022-08-17T19:54:01.437Z,100.00
2022-08-17T19:56:31.687Z,100.00
2022-08-17T19:59:01.255Z,100.00
2022-08-17T20:01:38.781Z,100.00
2022-08-17T20:04:15.687Z,100.00
2022-08-17T20:06:45.733Z,100.00
2022-08-17T20:09:38.382Z,100.00
2022-08-17T20:12:09.986Z,100.00
2022-08-17T20:14:51.710Z,100.00
2022-08-17T20:17:25.679Z,100.00
2022-08-17T20:20:07.494Z,100.00
2022-08-17T20:23:13.611Z,100.00
2022-08-17T20:25:47.557Z,100.00
2022-08-17T20:28:24.673Z,100.00
2022-08-17T20:30:52.041Z,100.00
2022-08-17T20:33:36.897Z,100.00
2022-08-17T20:36:19.909Z,100.00
2022-08-17T20:38:58.997Z,100.00
2022-08-17T20:41:28.892Z,100.00
2022-08-17T20:43:55.463Z,100.00
2022-08-17T20:46:40.337Z,100.00
2022-08-17T20:49:57.904Z,100.00
2022-08-17T20:52:48.321Z,100.00
2022-08-17T20:55:51.580Z,100.00
2022-08-17T20:58:24.678Z,100.00
2022-08-17T21:01:00.499Z,100.00
2022-08-17T21:03:27.063Z,100.00
2022-08-17T21:06:04.804Z,100.00
2022-08-17T21:08:54.267Z,100.00
2022-08-17T21:11:56.778Z,100.00
2022-08-17T21:14:28.648Z,100.00
2022-08-17T21:17:29.668Z,100.00
2022-08-17T21:20:25.316Z,100.00
2022-08-17T21:23:19.644Z,100.00
2022-08-17T21:26:28.078Z,100.00
2022-08-17T21:29:29.904Z,100.00
2022-08-17T21:32:05.455Z,100.00
2022-08-17T21:34:39.649Z,100.00
2022-08-17T21:37:26.186Z,100.00
2022-08-17T21:40:18.821Z,100.00
2022-08-17T21:42:53.728Z,100.00
2022-08-17T21:45:40.316Z,100.00
2022-08-17T21:48:23.902Z,100.00
2022-08-17T21:51:14.509Z,100.00
2022-08-17T21:53:56.085Z,100.00
2022-08-17T21:56:36.381Z,100.00
2022-08-17T21:59:07.448Z,100.00
2022-08-17T22:01:41.003Z,100.00
2022-08-17T22:04:11.255Z,100.00
2022-08-17T22:06:41.761Z,100.00
2022-08-17T22:09:13.732Z,100.00
2022-08-17T22:12:02.980Z,100.00
2022-08-17T22:14:52.064Z,100.00
2022-08-17T22:17:24.986Z,100.00
2022-08-17T22:19:59.590Z,100.00
2022-08-17T22:22:29.217Z,100.00
2022-08-17T22:25:07.172Z,100.00
2022-08-17T22:27:56.523Z,100.00
2022-08-17T22:31:01.347Z,100.00
2022-08-17T22:33:40.823Z,100.00
2022-08-17T22:36:29.186Z,100.00
2022-08-17T22:39:10.761Z,100.00
2022-08-17T22:41:58.978Z,100.00
2022-08-17T22:44:32.001Z,100.00
2022-08-17T22:47:31.171Z,100.00
2022-08-17T22:50:03.791Z,100.00
2022-08-17T22:53:01.771Z,100.00
2022-08-17T22:55:50.171Z,100.00
2022-08-17T22:58:38.966Z,100.00
2022-08-17T23:01:31.515Z,100.00
2022-08-17T23:04:20.230Z,100.00
2022-08-17T23:06:46.899Z,100.00
2022-08-17T23:09:13.507Z,100.00
2022-08-17T23:11:49.582Z,100.00
2022-08-17T23:14:19.740Z,100.00
2022-08-17T23:16:50.882Z,100.00
2022-08-17T23:19:19.982Z,100.00
2022-08-17T23:21:48.676Z,100.00
2022-08-17T23:24:20.709Z,100.00
2022-08-17T23:26:47.439Z,100.00
2022-08-17T23:29:14.018Z,100.00
2022-08-17T23:31:40.852Z,100.00
2022-08-17T23:34:11.920Z,100.00
2022-08-17T23:36:38.618Z,100.00
2022-08-17T23:39:06.478Z,100.00
2022-08-17T23:41:38.444Z,100.00
2022-08-17T23:44:06.399Z,100.00
2022-08-17T23:46:33.110Z,100.00
2022-08-17T23:49:00.477Z,100.00
2022-08-17T23:51:30.837Z,100.00
2022-08-17T23:54:07.694Z,100.00
2022-08-17T23:56:41.870Z,100.00
2022-08-17T23:59:08.493Z,100.00
